Time;durP1;ratioP1;P1;durP2;ratioP2;P2;SDS_P1;SDS_P2;PMS_P1;PMS_P2;Temp;Humidity;BMP_temperature;BMP_pressure;BME280_temperature;BME280_humidity;BME280_pressure;Samples;Min_cycle;Max_cycle;Signal;HPM_P1;HPM_P2
2023/04/18 00:00:47;;;;;;;4.18;1.52;;;20.80;99.90;;;;;;5087076;27;20366;-75
2023/04/18 00:03:19;;;;;;;7.00;2.08;;;20.90;99.90;;;;;;5087486;27;20202;-74
2023/04/18 00:05:52;;;;;;;5.78;1.88;;;21.00;99.90;;;;;;5083916;27;20324;-74
2023/04/18 00:08:23;;;;;;;9.63;1.55;;;21.10;99.90;;;;;;5106048;28;21798;-74
2023/04/18 00:10:54;;;;;;;5.05;1.50;;;21.10;99.90;;;;;;5083626;27;20210;-76
2023/04/18 00:13:27;;;;;;;4.18;1.42;;;21.20;99.90;;;;;;5082680;27;20369;-76
2023/04/18 00:15:58;;;;;;;2.40;1.15;;;21.30;99.90;;;;;;5096950;27;20216;-74
2023/04/18 00:18:29;;;;;;;3.25;1.20;;;21.40;99.90;;;;;;5129213;27;20193;-74
2023/04/18 00:21:03;;;;;;;4.45;1.50;;;21.40;99.90;;;;;;5126589;28;20198;-75
2023/04/18 00:23:34;;;;;;;4.25;1.23;;;21.40;99.90;;;;;;5130064;27;20565;-74
2023/04/18 00:26:05;;;;;;;2.17;1.00;;;21.40;99.90;;;;;;5130591;27;20230;-74
2023/04/18 00:28:36;;;;;;;3.05;1.08;;;21.50;99.90;;;;;;5124965;27;20197;-74
2023/04/18 00:31:07;;;;;;;3.20;1.17;;;21.60;99.90;;;;;;5131047;27;20204;-75
2023/04/18 00:33:38;;;;;;;2.03;1.00;;;21.70;99.90;;;;;;5128640;27;20246;-74
2023/04/18 00:36:12;;;;;;;2.60;1.05;;;21.80;99.90;;;;;;5110048;28;20225;-75
2023/04/18 00:38:43;;;;;;;3.28;1.00;;;21.90;99.90;;;;;;5111327;28;20565;-74
2023/04/18 00:41:14;;;;;;;4.60;1.17;;;22.00;99.90;;;;;;5126793;27;20197;-73
2023/04/18 00:43:45;;;;;;;3.90;0.93;;;22.10;99.90;;;;;;5114186;27;20579;-74
2023/04/18 00:46:16;;;;;;;2.45;1.10;;;22.20;99.90;;;;;;5106068;27;20925;-73
2023/04/18 00:48:47;;;;;;;2.22;1.05;;;22.20;99.90;;;;;;5088093;27;20636;-74
2023/04/18 00:51:21;;;;;;;3.35;0.80;;;22.30;99.90;;;;;;5090726;27;20303;-74
2023/04/18 00:53:52;;;;;;;3.60;0.85;;;22.40;99.90;;;;;;5086387;27;20306;-73
2023/04/18 00:56:24;;;;;;;4.43;0.85;;;22.30;99.90;;;;;;5088644;27;20843;-75
2023/04/18 00:58:55;;;;;;;1.90;0.65;;;22.40;99.90;;;;;;5089924;27;20286;-74
2023/04/18 01:01:27;;;;;;;3.47;0.80;;;22.40;99.90;;;;;;5088551;27;20206;-75
2023/04/18 01:03:58;;;;;;;2.08;0.90;;;22.40;99.90;;;;;;5087124;27;20747;-74
2023/04/18 01:06:31;;;;;;;3.05;0.90;;;22.40;99.90;;;;;;5089477;27;20194;-73
2023/04/18 01:09:04;;;;;;;3.47;0.98;;;22.40;99.90;;;;;;5094411;27;20190;-75
2023/04/18 01:11:35;;;;;;;3.40;1.00;;;22.40;99.90;;;;;;5115151;27;20194;-75
2023/04/18 01:14:08;;;;;;;2.58;0.88;;;22.40;99.90;;;;;;5128956;27;20190;-74
2023/04/18 01:16:39;;;;;;;1.60;0.65;;;22.40;99.90;;;;;;5122755;27;20213;-75
2023/04/18 01:19:10;;;;;;;3.90;0.80;;;22.40;99.90;;;;;;5128694;27;20210;-75
2023/04/18 01:21:44;;;;;;;2.70;1.08;;;22.40;99.90;;;;;;5131272;27;20198;-75
2023/04/18 01:24:18;;;;;;;5.28;1.00;;;22.40;99.90;;;;;;5132776;27;20278;-74
2023/04/18 01:26:50;;;;;;;5.28;1.38;;;22.50;99.90;;;;;;5122936;27;20645;-74
2023/04/18 01:29:21;;;;;;;3.83;1.13;;;22.60;99.90;;;;;;5131829;27;20221;-75
2023/04/18 01:31:52;;;;;;;3.85;1.08;;;22.60;99.90;;;;;;5126620;27;20202;-75
2023/04/18 01:34:23;;;;;;;3.15;0.80;;;22.60;99.90;;;;;;5131132;27;20197;-75
2023/04/18 01:36:54;;;;;;;2.78;0.93;;;22.40;99.90;;;;;;5126911;27;20302;-76
2023/04/18 01:39:28;;;;;;;6.30;1.40;;;22.50;99.90;;;;;;5131255;27;20304;-75
2023/04/18 01:42:00;;;;;;;2.33;0.98;;;22.50;99.90;;;;;;5124957;27;20652;-74
2023/04/18 01:44:31;;;;;;;6.38;1.27;;;22.50;99.90;;;;;;5125716;27;20201;-75
2023/04/18 01:47:02;;;;;;;3.10;0.98;;;22.60;99.90;;;;;;5126227;27;20217;-75
2023/04/18 01:49:33;;;;;;;1.52;0.63;;;22.60;99.90;;;;;;5125749;27;20691;-75
2023/04/18 01:52:04;;;;;;;2.20;0.70;;;22.70;99.90;;;;;;5129099;27;20218;-75
2023/04/18 01:54:37;;;;;;;2.50;0.80;;;22.80;99.90;;;;;;5119008;27;20195;-76
2023/04/18 01:57:08;;;;;;;2.88;0.90;;;22.80;99.90;;;;;;5124994;27;20233;-75
2023/04/18 01:59:39;;;;;;;4.82;1.23;;;22.80;99.90;;;;;;5120097;27;20594;-74
2023/04/18 02:02:10;;;;;;;6.75;1.02;;;22.80;99.90;;;;;;5121653;27;20214;-76
2023/04/18 02:04:41;;;;;;;4.57;0.98;;;22.80;99.90;;;;;;5129409;27;20299;-75
2023/04/18 02:07:12;;;;;;;2.90;0.88;;;22.80;99.90;;;;;;5115804;27;20208;-75
2023/04/18 02:09:45;;;;;;;3.67;0.90;;;22.80;99.90;;;;;;5126568;27;20194;-74
2023/04/18 02:12:18;;;;;;;3.20;0.90;;;22.90;99.90;;;;;;5122171;27;20194;-75
2023/04/18 02:14:54;;;;;;;3.25;0.77;;;22.90;99.90;;;;;;5130110;27;20201;-75
2023/04/18 02:17:25;;;;;;;4.03;0.80;;;23.00;99.90;;;;;;5123070;27;20225;-75
2023/04/18 02:19:56;;;;;;;3.17;0.70;;;23.00;99.90;;;;;;5122726;27;20210;-74
2023/04/18 02:22:26;;;;;;;2.85;0.70;;;23.00;99.90;;;;;;5124014;27;20683;-77
2023/04/18 02:24:59;;;;;;;4.15;0.80;;;23.10;99.90;;;;;;5121436;27;20299;-75
2023/04/18 02:27:29;;;;;;;5.50;1.10;;;23.10;99.90;;;;;;5131928;27;20202;-76
2023/04/18 02:30:00;;;;;;;7.43;1.15;;;23.10;99.90;;;;;;5131658;27;20198;-75
2023/04/18 02:32:31;;;;;;;3.17;0.80;;;23.10;99.90;;;;;;5129693;27;21315;-75
2023/04/18 02:35:02;;;;;;;3.47;1.00;;;23.10;99.90;;;;;;5119773;27;20202;-74
2023/04/18 02:37:32;;;;;;;4.03;1.02;;;23.20;99.90;;;;;;5132759;27;20231;-75
2023/04/18 02:40:06;;;;;;;2.90;0.70;;;23.30;99.90;;;;;;5118853;27;20201;-76
2023/04/18 02:42:37;;;;;;;3.60;1.00;;;23.40;99.90;;;;;;5129199;27;20190;-76
2023/04/18 02:45:08;;;;;;;2.67;1.00;;;23.50;99.90;;;;;;5126296;27;20247;-76
2023/04/18 02:47:39;;;;;;;4.28;1.10;;;23.30;99.90;;;;;;5131635;27;20198;-75
2023/04/18 02:50:11;;;;;;;2.42;0.68;;;23.40;99.90;;;;;;5127667;27;20190;-76
2023/04/18 02:52:42;;;;;;;4.22;0.95;;;23.50;99.90;;;;;;5130939;27;20606;-75
2023/04/18 02:55:15;;;;;;;5.45;1.08;;;23.60;99.90;;;;;;5125314;27;20198;-76
2023/04/18 02:57:46;;;;;;;5.97;1.02;;;23.50;99.90;;;;;;5118966;27;20225;-75
2023/04/18 03:00:17;;;;;;;2.58;0.68;;;23.50;99.90;;;;;;5125432;27;20665;-76
2023/04/18 03:02:47;;;;;;;4.25;1.20;;;23.50;99.90;;;;;;5127733;27;20247;-74
2023/04/18 03:05:19;;;;;;;4.53;0.82;;;23.40;99.90;;;;;;5124501;27;20194;-74
2023/04/18 03:07:50;;;;;;;3.25;1.00;;;23.40;99.90;;;;;;5130045;27;20251;-75
2023/04/18 03:10:23;;;;;;;5.68;1.00;;;23.30;99.90;;;;;;5131527;27;20201;-75
2023/04/18 03:12:53;;;;;;;4.03;1.00;;;23.20;99.90;;;;;;5123227;27;20244;-76
2023/04/18 03:15:24;;;;;;;3.13;1.10;;;23.20;99.90;;;;;;5123763;27;20194;-74
2023/04/18 03:17:55;;;;;;;6.38;1.00;;;23.10;99.90;;;;;;5129297;27;20876;-74
2023/04/18 03:20:26;;;;;;;4.40;1.00;;;23.10;99.90;;;;;;5128126;27;20220;-74
2023/04/18 03:22:56;;;;;;;4.38;0.90;;;23.10;99.90;;;;;;5131315;27;20565;-74
2023/04/18 03:25:29;;;;;;;3.50;0.80;;;23.10;99.90;;;;;;5128983;27;20218;-74
2023/04/18 03:27:59;;;;;;;3.08;0.95;;;23.10;99.90;;;;;;5115515;27;20197;-75
2023/04/18 03:30:30;;;;;;;3.58;0.90;;;23.10;99.90;;;;;;5127075;27;20209;-75
2023/04/18 03:33:01;;;;;;;4.55;1.05;;;23.20;99.90;;;;;;5125531;27;20198;-75
2023/04/18 03:35:32;;;;;;;4.40;1.00;;;23.30;99.90;;;;;;5126900;27;20217;-74
2023/04/18 03:38:02;;;;;;;2.75;0.90;;;23.40;99.90;;;;;;5127345;27;20222;-75
2023/04/18 03:40:35;;;;;;;3.95;0.90;;;23.30;99.90;;;;;;5126477;27;20560;-74
2023/04/18 03:43:07;;;;;;;4.85;1.10;;;23.40;99.90;;;;;;5128677;27;20186;-74
2023/04/18 03:45:37;;;;;;;4.95;1.15;;;23.40;99.90;;;;;;5123455;27;20194;-75
2023/04/18 03:48:11;;;;;;;3.60;1.00;;;23.40;99.90;;;;;;5128327;27;20266;-75
2023/04/18 03:50:42;;;;;;;4.07;1.05;;;23.40;99.90;;;;;;5129172;27;20190;-74
2023/04/18 03:53:13;;;;;;;3.92;1.10;;;23.30;99.90;;;;;;5126490;27;20617;-73
2023/04/18 03:55:46;;;;;;;4.25;0.80;;;23.30;99.90;;;;;;5127973;27;20217;-75
2023/04/18 03:58:16;;;;;;;4.03;0.75;;;23.30;99.90;;;;;;5122775;27;20259;-74
2023/04/18 04:00:47;;;;;;;5.20;1.13;;;23.20;99.90;;;;;;5116820;27;20270;-75
2023/04/18 04:03:18;;;;;;;5.43;0.98;;;23.20;99.90;;;;;;5127859;27;20576;-75
2023/04/18 04:05:49;;;;;;;5.55;0.95;;;23.30;99.90;;;;;;5128418;27;20200;-76
2023/04/18 04:08:22;;;;;;;3.47;0.98;;;23.20;99.90;;;;;;5125907;28;20201;-76
2023/04/18 04:11:03;;;;;;;3.65;0.82;;;23.20;99.90;;;;;;5132176;27;20194;-76
2023/04/18 04:13:35;;;;;;;3.65;1.02;;;23.20;99.90;;;;;;5129460;27;20200;-75
2023/04/18 04:16:06;;;;;;;2.83;0.77;;;23.20;99.90;;;;;;5126295;27;20247;-75
2023/04/18 04:18:37;;;;;;;5.60;0.77;;;23.10;99.90;;;;;;5127989;27;20242;-74
2023/04/18 04:21:11;;;;;;;3.05;0.85;;;23.10;99.90;;;;;;5134005;27;20198;-75
2023/04/18 04:23:45;;;;;;;3.08;0.85;;;23.00;99.90;;;;;;5134390;27;20200;-75
2023/04/18 04:26:17;;;;;;;4.28;0.85;;;23.10;99.90;;;;;;5132451;27;20227;-75
2023/04/18 04:28:50;;;;;;;3.08;0.93;;;23.10;99.90;;;;;;5132800;27;20190;-75
2023/04/18 04:31:21;;;;;;;3.83;1.10;;;23.00;99.90;;;;;;5136650;27;20204;-77
2023/04/18 04:33:51;;;;;;;2.95;0.93;;;22.90;99.90;;;;;;5135453;27;20198;-74
2023/04/18 04:36:26;;;;;;;5.30;1.00;;;23.00;99.90;;;;;;5122048;27;20212;-73
2023/04/18 04:38:57;;;;;;;3.30;0.98;;;22.90;99.90;;;;;;5118122;27;20197;-76
2023/04/18 04:41:30;;;;;;;5.25;1.15;;;22.90;99.90;;;;;;5133424;27;20190;-75
2023/04/18 04:44:03;;;;;;;3.72;0.90;;;22.90;99.90;;;;;;5126804;27;20795;-75
2023/04/18 04:46:34;;;;;;;3.92;0.80;;;22.90;99.90;;;;;;5124755;27;20259;-75
2023/04/18 04:49:04;;;;;;;6.40;1.13;;;22.90;99.90;;;;;;5132827;27;20206;-75
2023/04/18 04:51:35;;;;;;;3.22;0.70;;;23.00;99.90;;;;;;5119140;27;20198;-75
2023/04/18 04:54:06;;;;;;;4.20;0.90;;;22.90;99.90;;;;;;5132408;27;20194;-75
2023/04/18 04:56:38;;;;;;;3.40;0.73;;;22.90;99.90;;;;;;5136095;27;20205;-76
2023/04/18 04:59:09;;;;;;;4.13;0.70;;;22.80;99.90;;;;;;5133558;27;20194;-74
2023/04/18 05:01:40;;;;;;;3.47;1.00;;;22.90;99.90;;;;;;5134192;27;20191;-77
2023/04/18 05:04:11;;;;;;;3.92;0.90;;;22.90;99.90;;;;;;5123371;27;20972;-74
2023/04/18 05:06:42;;;;;;;2.50;0.80;;;22.90;99.90;;;;;;5126551;27;20252;-75
2023/04/18 05:09:13;;;;;;;3.83;0.90;;;22.90;99.90;;;;;;5123895;27;20709;-74
2023/04/18 05:11:46;;;;;;;3.58;0.85;;;22.90;99.90;;;;;;5136048;27;20257;-76
2023/04/18 05:14:17;;;;;;;4.63;1.08;;;22.90;99.90;;;;;;5125239;27;20205;-75
2023/04/18 05:16:48;;;;;;;3.53;0.90;;;22.90;99.90;;;;;;5126191;27;20186;-75
2023/04/18 05:19:19;;;;;;;4.45;0.80;;;23.00;99.90;;;;;;5095820;27;20231;-75
2023/04/18 05:21:50;;;;;;;6.07;1.02;;;23.00;99.90;;;;;;5086222;27;20944;-76
2023/04/18 05:24:31;;;;;;;1.95;0.70;;;23.10;99.90;;;;;;5086202;27;20230;-75
2023/04/18 05:27:04;;;;;;;3.75;1.10;;;23.10;99.90;;;;;;5088011;27;20775;-75
2023/04/18 05:29:34;;;;;;;4.38;0.95;;;23.00;99.90;;;;;;5086298;27;20202;-75
2023/04/18 05:32:05;;;;;;;5.95;1.23;;;23.00;99.90;;;;;;5086750;27;20202;-75
2023/04/18 05:34:36;;;;;;;3.08;0.73;;;23.00;99.90;;;;;;5084989;27;20198;-74
2023/04/18 05:37:10;;;;;;;7.65;1.02;;;22.90;99.90;;;;;;5088079;27;20221;-74
2023/04/18 05:39:42;;;;;;;3.22;0.82;;;23.00;99.90;;;;;;5085390;27;20672;-75
2023/04/18 05:42:15;;;;;;;4.65;1.13;;;23.00;99.90;;;;;;5083844;27;20198;-75
2023/04/18 05:44:53;;;;;;;6.47;1.00;;;23.10;99.90;;;;;;5104505;27;20226;-76
2023/04/18 05:47:25;;;;;;;3.53;0.90;;;23.10;99.90;;;;;;5089739;27;20224;-77
2023/04/18 05:50:01;;;;;;;4.97;0.95;;;23.10;99.90;;;;;;5091532;27;20296;-77
2023/04/18 05:52:32;;;;;;;3.03;0.80;;;23.10;99.90;;;;;;5091784;27;20208;-76
2023/04/18 05:55:03;;;;;;;3.22;0.75;;;23.00;99.90;;;;;;5090726;27;20194;-76
2023/04/18 05:57:37;;;;;;;3.90;1.05;;;23.10;99.90;;;;;;5089222;27;20847;-78
2023/04/18 06:00:11;;;;;;;6.10;1.13;;;23.00;99.90;;;;;;5099790;27;20208;-76
2023/04/18 06:02:42;;;;;;;3.92;1.00;;;23.10;99.90;;;;;;5098131;27;20686;-76
2023/04/18 06:05:13;;;;;;;3.47;0.93;;;23.20;99.90;;;;;;5087818;27;20210;-75
2023/04/18 06:07:44;;;;;;;7.68;1.15;;;23.10;99.90;;;;;;5100201;27;20198;-76
2023/04/18 06:10:16;;;;;;;2.10;0.65;;;23.20;99.90;;;;;;5087119;27;20199;-74
2023/04/18 06:12:49;;;;;;;5.60;1.08;;;23.10;99.90;;;;;;5086652;27;20330;-76
2023/04/18 06:15:20;;;;;;;5.68;0.88;;;22.90;99.90;;;;;;5086429;27;20830;-74
2023/04/18 06:17:51;;;;;;;3.05;0.90;;;22.90;99.90;;;;;;5089084;27;20218;-75
2023/04/18 06:20:23;;;;;;;3.38;0.90;;;22.90;99.90;;;;;;5084606;27;20691;-76
2023/04/18 06:22:54;;;;;;;6.65;0.90;;;23.10;99.90;;;;;;5085151;27;20217;-76
2023/04/18 06:25:26;;;;;;;4.78;1.33;;;23.30;99.90;;;;;;5083416;27;20280;-77
2023/04/18 06:27:59;;;;;;;3.72;0.85;;;23.50;99.90;;;;;;5082950;27;20202;-75
2023/04/18 06:30:30;;;;;;;4.55;0.90;;;23.70;99.90;;;;;;5084615;27;20197;-76
2023/04/18 06:33:01;;;;;;;4.57;1.10;;;23.80;99.90;;;;;;5085026;27;20194;-75
2023/04/18 06:35:34;;;;;;;5.70;1.30;;;23.90;99.90;;;;;;5085236;27;20659;-75
2023/04/18 06:38:07;;;;;;;4.45;0.88;;;23.80;99.90;;;;;;5089178;27;21556;-75
2023/04/18 06:40:38;;;;;;;4.78;0.82;;;23.60;99.90;;;;;;5088938;27;20293;-77
2023/04/18 06:43:11;;;;;;;5.32;1.05;;;23.40;99.90;;;;;;5086248;27;20205;-76
2023/04/18 06:45:42;;;;;;;5.57;1.10;;;23.30;99.90;;;;;;5099988;27;20910;-76
2023/04/18 06:48:14;;;;;;;5.18;1.20;;;23.20;99.90;;;;;;5085042;27;20201;-77
2023/04/18 06:50:45;;;;;;;3.13;0.73;;;23.10;99.90;;;;;;5083935;27;20202;-76
2023/04/18 06:53:16;;;;;;;6.00;1.17;;;23.00;99.90;;;;;;5128824;27;20201;-77
2023/04/18 06:55:47;;;;;;;7.22;0.98;;;22.90;99.90;;;;;;5115462;27;20222;-76
2023/04/18 06:58:20;;;;;;;4.00;1.05;;;22.80;99.90;;;;;;5130075;27;20326;-77
2023/04/18 07:00:52;;;;;;;4.35;0.90;;;22.70;99.90;;;;;;5130117;27;20205;-77
2023/04/18 07:03:23;;;;;;;4.38;1.10;;;22.60;99.90;;;;;;5132898;27;20197;-79
2023/04/18 07:05:54;;;;;;;5.20;1.05;;;22.50;99.90;;;;;;5112042;27;20186;-77
2023/04/18 07:08:25;;;;;;;4.25;1.00;;;22.50;99.90;;;;;;5082616;27;20219;-77
2023/04/18 07:10:56;;;;;;;3.75;1.00;;;22.40;99.90;;;;;;5087513;27;20195;-76
2023/04/18 07:13:29;;;;;;;7.68;1.10;;;22.30;99.90;;;;;;5084092;27;20194;-77
2023/04/18 07:16:00;;;;;;;3.25;0.80;;;22.20;99.90;;;;;;5086163;27;20418;-76
2023/04/18 07:18:32;;;;;;;4.90;1.27;;;22.10;99.90;;;;;;5087558;27;20335;-76
2023/04/18 07:21:05;;;;;;;5.43;1.10;;;22.00;99.90;;;;;;5084949;27;20202;-77
2023/04/18 07:23:39;;;;;;;4.30;1.15;;;22.00;99.90;;;;;;5085454;27;20249;-76
2023/04/18 07:26:12;;;;;;;4.47;1.00;;;21.90;99.90;;;;;;5083341;27;20232;-76
2023/04/18 07:28:45;;;;;;;6.25;1.20;;;21.90;99.90;;;;;;5084432;27;20198;-78
2023/04/18 07:31:18;;;;;;;4.93;0.93;;;21.80;99.90;;;;;;5090971;27;20216;-78
2023/04/18 07:33:49;;;;;;;3.50;0.93;;;21.70;99.90;;;;;;5084362;27;20576;-76
2023/04/18 07:36:20;;;;;;;3.30;0.73;;;21.70;99.90;;;;;;5089587;27;20686;-77
2023/04/18 07:38:52;;;;;;;5.97;1.08;;;21.60;99.90;;;;;;5089039;27;21605;-77
2023/04/18 07:41:23;;;;;;;6.32;1.15;;;21.60;99.90;;;;;;5085199;27;20734;-78
2023/04/18 07:43:56;;;;;;;5.70;1.10;;;21.50;99.90;;;;;;5085681;27;20194;-77
2023/04/18 07:46:27;;;;;;;5.15;1.27;;;21.50;99.90;;;;;;5097430;27;20202;-77
2023/04/18 07:48:58;;;;;;;3.63;1.20;;;21.50;99.90;;;;;;5101094;27;20193;-78
2023/04/18 07:51:31;;;;;;;4.72;0.85;;;21.40;99.90;;;;;;5085023;27;20575;-78
2023/04/18 07:54:02;;;;;;;2.60;0.95;;;21.40;99.90;;;;;;5084283;27;22102;-78
2023/04/18 07:56:34;;;;;;;5.53;1.20;;;21.40;99.90;;;;;;5084197;27;20228;-78
2023/04/18 07:59:07;;;;;;;6.25;1.05;;;21.30;99.90;;;;;;5086373;27;21074;-78
2023/04/18 08:01:38;;;;;;;4.47;1.00;;;21.20;99.90;;;;;;5085890;27;20200;-79
2023/04/18 08:04:09;;;;;;;3.90;1.05;;;21.20;99.90;;;;;;5085342;27;20199;-79
2023/04/18 08:06:40;;;;;;;4.88;0.95;;;21.20;99.90;;;;;;5094171;27;20198;-79
2023/04/18 08:09:12;;;;;;;6.30;1.27;;;21.10;99.90;;;;;;5085181;27;20199;-80
2023/04/18 08:11:43;;;;;;;4.45;1.00;;;21.10;99.90;;;;;;5099760;27;20314;-79
2023/04/18 08:14:17;;;;;;;3.80;1.02;;;21.10;99.90;;;;;;5085177;28;20657;-79
2023/04/18 08:16:48;;;;;;;3.38;1.00;;;21.10;99.90;;;;;;5084294;27;20194;-79
2023/04/18 08:19:19;;;;;;;4.43;1.30;;;21.10;99.90;;;;;;5082532;27;20229;-79
2023/04/18 08:21:52;;;;;;;3.78;0.98;;;21.10;99.90;;;;;;5082698;28;20205;-79
2023/04/18 08:24:23;;;;;;;3.97;1.35;;;21.10;99.90;;;;;;5084287;27;20724;-79
2023/04/18 08:26:55;;;;;;;2.90;0.90;;;21.00;99.90;;;;;;5083710;28;20853;-79
2023/04/18 08:29:28;;;;;;;2.22;0.80;;;21.00;99.90;;;;;;5082312;27;20206;-80
2023/04/18 08:31:59;;;;;;;6.78;1.05;;;21.00;99.90;;;;;;5079768;27;20197;-78
2023/04/18 08:34:30;;;;;;;6.15;1.25;;;21.10;99.90;;;;;;5084235;27;20222;-80
2023/04/18 08:37:01;;;;;;;5.25;1.13;;;21.00;99.90;;;;;;5085891;28;20212;-80
2023/04/18 08:39:33;;;;;;;7.38;1.77;;;21.00;99.90;;;;;;5097182;27;20226;-78
2023/04/18 08:42:05;;;;;;;3.38;1.13;;;21.00;99.90;;;;;;5086111;28;20235;-78
2023/04/18 08:44:38;;;;;;;7.18;1.20;;;21.00;99.90;;;;;;5091111;27;20205;-79
2023/04/18 08:47:11;;;;;;;3.85;1.23;;;21.00;99.90;;;;;;5100987;27;20228;-79
2023/04/18 08:49:44;;;;;;;4.32;1.00;;;21.00;99.90;;;;;;5089817;27;20298;-78
2023/04/18 08:52:17;;;;;;;5.28;1.20;;;21.00;99.90;;;;;;5089839;27;20198;-79
2023/04/18 08:54:49;;;;;;;5.97;1.35;;;20.90;99.90;;;;;;5089513;27;20198;-79
2023/04/18 08:57:25;;;;;;;4.40;1.33;;;21.00;99.90;;;;;;5088485;27;20202;-79
2023/04/18 08:59:59;;;;;;;4.72;1.10;;;21.00;99.90;;;;;;5091685;27;20236;-79
2023/04/18 09:02:41;;;;;;;5.32;1.30;;;20.90;99.90;;;;;;5092684;27;21819;-79
2023/04/18 09:05:17;;;;;;;5.07;1.45;;;20.90;99.90;;;;;;5100822;27;20205;-78
2023/04/18 09:07:49;;;;;;;4.75;1.20;;;20.90;99.90;;;;;;5090899;27;22490;-78
2023/04/18 09:10:29;;;;;;;5.85;1.80;;;20.90;99.90;;;;;;5092830;27;20209;-78
2023/04/18 09:13:03;;;;;;;7.65;1.45;;;20.90;99.90;;;;;;5092947;27;20553;-79
2023/04/18 09:15:36;;;;;;;3.72;1.00;;;20.90;99.90;;;;;;5090649;27;20310;-80
2023/04/18 09:18:13;;;;;;;5.43;1.10;;;20.80;99.90;;;;;;5091481;27;20992;-80
2023/04/18 09:20:46;;;;;;;7.10;1.20;;;20.80;99.90;;;;;;5091192;27;20762;-79
2023/04/18 09:23:25;;;;;;;3.00;1.13;;;20.80;99.90;;;;;;5091089;27;20702;-78
2023/04/18 09:25:57;;;;;;;3.97;1.15;;;20.80;99.90;;;;;;5088643;27;20253;-78
2023/04/18 09:28:30;;;;;;;2.63;0.93;;;20.80;99.90;;;;;;5091030;27;20202;-78
2023/04/18 09:31:10;;;;;;;2.58;0.90;;;20.80;99.90;;;;;;5090944;27;20198;-79
2023/04/18 09:33:43;;;;;;;3.95;1.10;;;20.80;99.90;;;;;;5094052;27;20213;-80
2023/04/18 09:36:22;;;;;;;5.40;1.20;;;20.80;99.90;;;;;;5097496;27;20199;-79
2023/04/18 09:38:53;;;;;;;4.20;0.80;;;20.70;99.90;;;;;;5106174;27;20228;-79
2023/04/18 09:41:25;;;;;;;5.05;0.93;;;20.70;99.90;;;;;;5093903;27;20637;-78
2023/04/18 09:44:13;;;;;;;3.88;0.85;;;20.70;99.90;;;;;;5091324;27;20202;-80
2023/04/18 09:46:48;;;;;;;7.63;1.30;;;20.70;99.90;;;;;;5107624;27;20306;-79
2023/04/18 09:49:19;;;;;;;3.90;1.10;;;20.70;99.90;;;;;;5090716;27;20232;-80
2023/04/18 09:51:53;;;;;;;4.15;1.10;;;20.70;99.90;;;;;;5092001;27;20190;-78
2023/04/18 09:54:26;;;;;;;4.85;1.33;;;20.70;99.90;;;;;;5090371;27;20205;-78
2023/04/18 09:56:58;;;;;;;5.40;1.23;;;20.70;99.90;;;;;;5090066;27;20681;-77
2023/04/18 09:59:42;;;;;;;4.63;0.95;;;20.60;99.90;;;;;;5092349;27;20577;-79
2023/04/18 10:02:23;;;;;;;4.32;1.10;;;20.60;99.90;;;;;;5091833;27;20374;-78
2023/04/18 10:04:55;;;;;;;5.43;1.58;;;20.60;99.90;;;;;;5108680;27;21983;-78
2023/04/18 10:07:27;;;;;;;6.32;1.40;;;20.60;99.90;;;;;;5107336;27;20198;-76
2023/04/18 10:10:01;;;;;;;3.28;1.23;;;20.60;99.90;;;;;;5104407;27;20190;-77
2023/04/18 10:12:32;;;;;;;4.78;1.20;;;20.60;99.90;;;;;;5105379;27;20307;-78
2023/04/18 10:15:04;;;;;;;8.43;1.50;;;20.60;99.90;;;;;;5096725;27;20203;-79
2023/04/18 10:17:44;;;;;;;3.67;0.88;;;20.60;99.90;;;;;;5094608;27;20201;-79
2023/04/18 10:20:25;;;;;;;6.50;1.52;;;20.60;99.90;;;;;;5091966;27;20238;-80
2023/04/18 10:22:57;;;;;;;5.38;1.45;;;20.60;99.90;;;;;;5094620;27;20198;-77
2023/04/18 10:25:55;;;;;;;4.85;1.00;;;20.50;99.90;;;;;;5100879;27;20226;-77
2023/04/18 10:28:27;;;;;;;7.63;1.75;;;20.50;99.90;;;;;;5094385;27;20190;-77
2023/04/18 10:31:06;;;;;;;5.63;2.00;;;20.50;99.90;;;;;;5096893;27;20194;-79
2023/04/18 10:33:41;;;;;;;5.47;1.85;;;20.40;99.90;;;;;;5097104;27;20201;-78
2023/04/18 10:36:19;;;;;;;5.65;1.52;;;20.40;99.90;;;;;;5102236;27;20193;-78
2023/04/18 10:38:54;;;;;;;6.20;1.58;;;20.40;99.90;;;;;;5120121;27;20217;-78
2023/04/18 10:41:27;;;;;;;5.53;1.40;;;20.30;99.90;;;;;;5095293;27;20200;-79
2023/04/18 10:44:21;;;;;;;4.85;1.30;;;20.30;99.90;;;;;;5093559;27;20194;-78
2023/04/18 10:47:26;;;;;;;7.40;1.50;;;20.30;99.90;;;;;;5113641;27;20194;-79
2023/04/18 10:50:05;;;;;;;4.63;1.30;;;20.30;99.90;;;;;;5092933;27;22130;-79
2023/04/18 10:52:37;;;;;;;4.78;1.27;;;20.30;99.90;;;;;;5095763;27;20230;-78
2023/04/18 10:55:15;;;;;;;7.28;1.63;;;20.20;99.90;;;;;;5094017;27;20229;-78
2023/04/18 10:57:47;;;;;;;6.63;1.50;;;20.20;99.90;;;;;;5098233;27;20206;-78
2023/04/18 11:00:21;;;;;;;7.43;1.70;;;20.20;99.90;;;;;;5094411;27;20218;-78
2023/04/18 11:02:54;;;;;;;5.65;1.60;;;20.10;99.90;;;;;;5092411;27;20209;-78
2023/04/18 11:05:29;;;;;;;7.35;2.50;;;20.10;99.90;;;;;;5092185;27;20340;-80
2023/04/18 11:08:00;;;;;;;6.68;2.40;;;20.10;99.90;;;;;;5091715;27;20204;-78
2023/04/18 11:10:32;;;;;;;4.47;1.90;;;20.10;99.90;;;;;;5092164;27;20206;-79
2023/04/18 11:13:07;;;;;;;8.65;1.80;;;20.00;99.90;;;;;;5094646;27;20216;-78
2023/04/18 11:15:39;;;;;;;5.13;1.30;;;20.00;99.90;;;;;;5091323;27;20212;-79
2023/04/18 11:18:12;;;;;;;3.03;1.10;;;20.00;99.90;;;;;;5092164;27;20198;-77
2023/04/18 11:20:50;;;;;;;4.80;1.17;;;20.00;99.90;;;;;;5092258;27;20226;-77
2023/04/18 11:23:23;;;;;;;8.98;1.30;;;20.00;99.90;;;;;;5092464;27;20220;-78
2023/04/18 11:25:57;;;;;;;3.88;1.13;;;20.00;99.90;;;;;;5090192;27;20313;-78
2023/04/18 11:28:28;;;;;;;3.25;1.23;;;20.00;99.90;;;;;;5091459;27;20201;-80
2023/04/18 11:31:03;;;;;;;4.40;1.20;;;20.00;99.90;;;;;;5093983;27;20573;-78
2023/04/18 11:33:34;;;;;;;7.57;1.42;;;20.00;99.90;;;;;;5092647;27;20217;-78
2023/04/18 11:36:08;;;;;;;6.75;1.10;;;20.00;99.90;;;;;;5095890;27;20412;-78
2023/04/18 11:38:41;;;;;;;3.90;0.90;;;20.00;99.90;;;;;;5102313;27;20204;-78
2023/04/18 11:41:16;;;;;;;5.70;1.33;;;20.00;99.90;;;;;;5099230;27;20263;-79
2023/04/18 11:43:48;;;;;;;4.18;0.93;;;20.00;99.90;;;;;;5091396;27;20667;-77
2023/04/18 11:46:20;;;;;;;3.63;1.08;;;20.10;99.90;;;;;;5109968;27;20194;-78
2023/04/18 11:48:51;;;;;;;5.03;1.17;;;20.10;99.90;;;;;;5104190;27;20711;-78
2023/04/18 11:51:38;;;;;;;4.63;1.15;;;20.10;99.90;;;;;;5097833;27;20239;-79
2023/04/18 11:54:23;;;;;;;3.50;1.00;;;20.10;99.90;;;;;;5098825;27;20244;-78
2023/04/18 11:56:55;;;;;;;5.03;1.30;;;20.10;99.90;;;;;;5125067;27;20200;-78
2023/04/18 11:59:26;;;;;;;6.30;1.17;;;20.10;99.90;;;;;;5125564;27;20233;-79
2023/04/18 12:02:02;;;;;;;5.20;1.25;;;20.10;99.90;;;;;;5122193;27;20228;-78
2023/04/18 12:04:50;;;;;;;5.03;1.48;;;20.10;99.90;;;;;;5115857;27;20201;-78
2023/04/18 12:07:39;;;;;;;11.73;1.77;;;20.10;99.90;;;;;;5118439;27;20217;-78
2023/04/18 12:10:19;;;;;;;7.78;1.38;;;20.10;99.90;;;;;;5125118;27;20189;-78
2023/04/18 12:12:52;;;;;;;4.32;1.23;;;20.10;99.90;;;;;;5129519;28;20204;-79
2023/04/18 12:15:25;;;;;;;8.82;1.33;;;20.10;99.90;;;;;;5117331;28;20205;-79
2023/04/18 12:18:00;;;;;;;4.15;1.20;;;20.00;99.90;;;;;;5126611;28;20243;-79
2023/04/18 12:20:45;;;;;;;7.35;1.65;;;20.10;99.90;;;;;;5129452;28;20313;-79
2023/04/18 12:23:39;;;;;;;4.90;1.10;;;20.00;99.90;;;;;;5127176;27;20194;-79
2023/04/18 12:26:17;;;;;;;6.18;1.40;;;20.00;99.90;;;;;;5120983;28;20226;-79
2023/04/18 12:28:52;;;;;;;5.25;1.17;;;20.00;99.90;;;;;;5131053;27;20241;-79
2023/04/18 12:31:27;;;;;;;6.07;1.30;;;20.00;99.90;;;;;;5131124;27;20280;-78
2023/04/18 12:33:59;;;;;;;6.00;1.10;;;19.90;99.90;;;;;;5111838;27;20195;-78
2023/04/18 12:36:30;;;;;;;3.83;1.00;;;19.90;99.90;;;;;;5124271;27;20221;-78
2023/04/18 12:39:03;;;;;;;6.22;1.20;;;19.80;99.90;;;;;;5139463;27;20190;-77
2023/04/18 12:41:35;;;;;;;5.57;1.25;;;19.80;99.90;;;;;;5133695;27;20201;-78
2023/04/18 12:44:06;;;;;;;6.13;1.50;;;19.80;99.90;;;;;;5135461;27;20194;-78
2023/04/18 12:46:37;;;;;;;5.53;1.20;;;19.80;99.90;;;;;;5133476;27;20629;-77
2023/04/18 12:49:08;;;;;;;7.97;1.50;;;19.70;99.90;;;;;;5132368;27;20190;-78
2023/04/18 12:51:43;;;;;;;6.68;1.67;;;19.60;99.90;;;;;;5130395;27;20193;-79
2023/04/18 12:54:16;;;;;;;6.15;1.45;;;19.60;99.90;;;;;;5132089;27;20205;-82
2023/04/18 12:56:48;;;;;;;4.43;1.20;;;19.50;99.90;;;;;;5132539;27;20255;-80
2023/04/18 12:59:19;;;;;;;4.88;1.70;;;19.40;99.90;;;;;;5132793;27;20213;-78
2023/04/18 13:01:50;;;;;;;7.82;1.50;;;19.50;99.90;;;;;;5134591;27;20284;-80
2023/04/18 13:04:21;;;;;;;5.47;1.27;;;19.40;99.90;;;;;;5135454;27;20568;-77
2023/04/18 13:06:53;;;;;;;8.50;1.52;;;19.40;99.90;;;;;;5131645;27;20208;-78
2023/04/18 13:09:26;;;;;;;5.70;1.40;;;19.40;99.90;;;;;;5132898;27;20247;-78
2023/04/18 13:11:57;;;;;;;8.00;1.30;;;19.40;99.90;;;;;;5130349;27;20263;-77
2023/04/18 13:14:28;;;;;;;5.78;1.65;;;19.40;99.90;;;;;;5129077;27;20218;-79
2023/04/18 13:16:59;;;;;;;7.43;1.80;;;19.40;99.90;;;;;;5133224;27;20214;-78